ADDS METAR Data INFO
IDs: Format: Raw Decoded Include TAF

Data at: 1117 UTC 17 Jul 2018

KJWG 171115Z AUTO 15003KT 10SM CLR 26/22 A3001 RMK AO2 T02570220
KJWG 171055Z AUTO 16003KT 10SM CLR 26/22 A3000 RMK AO2 LTG DSNT N T02600222
KJWG 171035Z AUTO 00000KT 10SM CLR 26/23 A3000 RMK AO2 T02600226
KJWG 171015Z AUTO 16003KT 10SM SCT120 26/23 A3000 RMK AO2 LTG DSNT N T02560231
KJWG 170955Z AUTO 00000KT 10SM SCT120 25/23 A3000 RMK AO2 LTG DSNT N T02520230
KJWG 170935Z AUTO 00000KT 10SM BKN120 26/23 A3001 RMK AO2 T02580230
KJWG 170915Z AUTO 00000KT 10SM CLR 26/23 A3001 RMK AO2 LTG DSNT N T02590230
KJWG 170855Z AUTO 00000KT 10SM CLR 27/23 A3001 RMK AO2 T02650232
KJWG 170835Z AUTO 00000KT 10SM CLR 27/23 A3001 RMK AO2 T02670232
KJWG 170815Z AUTO 15003KT 10SM CLR 27/23 A3002 RMK AO2 T02700234
KJWG 170755Z AUTO 15004KT 10SM SCT090 27/24 A3002 RMK AO2 T02720235
KJWG 170735Z AUTO 13006KT 10SM BKN090 BKN120 28/23 A3003 RMK AO2 LTG DSNT S T02780233
KJWG 170715Z AUTO 14006KT 10SM BKN090 BKN110 28/23 A3003 RMK AO2 LTG DSNT S T02790234
KJWG 170655Z AUTO 13005KT 10SM SCT090 28/24 A3004 RMK AO2 LTG DSNT S T02760235
KJWG 170635Z AUTO 13004KT 10SM CLR 28/24 A3004 RMK AO2 T02790235
KJWG 170615Z AUTO 15004KT 10SM CLR 28/24 A3004 RMK AO2 LTG DSNT S AND NW T02810235
KJWG 170555Z AUTO 14003KT 10SM CLR 28/23 A3004 RMK AO2 T02750232 10350 20275 403670231
KJWG 170535Z AUTO 17005KT 10SM SCT090 SCT110 28/23 A3004 RMK AO2 T02760234
KJWG 170515Z AUTO 18003KT 10SM BKN090 28/24 A3005 RMK AO2 T02820237
KJWG 170455Z AUTO 10003KT 10SM SCT090 28/24 A3004 RMK AO2 T02800235
KJWG 170435Z AUTO 10004KT 10SM CLR 28/23 A3004 RMK AO2 T02770231
KJWG 170415Z AUTO 08004KT 10SM CLR 28/23 A3004 RMK AO2 T02780230
KJWG 170355Z AUTO 09004KT 10SM CLR 28/23 A3003 RMK AO2 T02830228
KJWG 170335Z AUTO 08004KT 10SM CLR 28/23 A3004 RMK AO2 LTG DSNT S T02820226
KJWG 170315Z AUTO 07004KT 10SM CLR 28/23 A3004 RMK AO2 T02800225
KJWG 170255Z AUTO 06006KT 10SM CLR 28/23 A3003 RMK AO2 T02820225
KJWG 170235Z AUTO 06007KT 10SM CLR 29/22 A3003 RMK AO2 T02870223
KJWG 170215Z AUTO 05011G14KT 10SM SCT090 30/22 A3002 RMK AO2 T02960224
KJWG 170155Z AUTO 07007KT 10SM CLR 32/22 A3002 RMK AO2 LTG DSNT N AND NE T03220224
KJWG 170135Z AUTO 10006KT 10SM CLR 33/23 A3000 RMK AO2 LTG DSNT NE T03310225
KJWG 170120Z AUTO 12008KT 10SM CLR 34/23 A2999 RMK AO2 LTG DSNT N AND NE T03350225
KJWG 170055Z AUTO 14006KT 10SM CLR 34/22 A2999 RMK AO2 LTG DSNT NE T03410221
KJWG 170035Z AUTO 14007KT 10SM CLR 35/22 A2997 RMK AO2 LTG DSNT NE T03470222
KJWG 170015Z AUTO 13006KT 10SM CLR 35/22 A2998 RMK AO2 T03490223
KJWG 162355Z AUTO 13006KT 10SM CLR 35/22 A2997 RMK AO2 T03500216 10367 20346
KJWG 162335Z AUTO 13008KT 10SM SCT065 35/22 A2998 RMK AO2 T03520221
KJWG 162315Z AUTO 15010G17KT 10SM SCT065 SCT100 35/23 A2998 RMK AO2 T03490228
KJWG 162255Z AUTO 13009KT 10SM CLR 36/22 A2997 RMK AO2 T03640220
KJWG 162235Z AUTO 13005KT 10SM CLR 35/21 A2998 RMK AO2 T03530212
KJWG 162215Z AUTO 16006KT 10SM SCT070 SCT095 35/21 A2998 RMK AO2 LTG DSNT SW T03530212
KJWG 162155Z AUTO 08005KT 10SM SCT070 36/22 A2999 RMK AO2 T03640215
KJWG 162135Z AUTO 15004KT 10SM SCT070 36/22 A2999 RMK AO2 LTG DSNT SE T03610218
KJWG 162115Z AUTO 06009KT 10SM SCT070 36/22 A3000 RMK AO2 T03630222
KJWG 162055Z AUTO 10009KT 10SM SCT065 36/22 A3001 RMK AO2 T03640218
KJWG 162035Z AUTO 16006KT 10SM SCT060 35/21 A3002 RMK AO2 T03500211
KJWG 162015Z AUTO 13005G15KT 10SM CLR 36/21 A3003 RMK AO2 T03610211
KJWG 161955Z AUTO 07007KT 050V110 10SM CLR 36/21 A3003 RMK AO2 T03600212
KJWG 161935Z AUTO 00000KT 10SM CLR 36/21 A3004 RMK AO2 T03550211
KJWG 161915Z AUTO 10006KT 10SM CLR 36/21 A3004 RMK AO2 T03590211
KJWG 161855Z AUTO 11005G08KT 10SM CLR 35/21 A3005 RMK AO2 T03520209
KJWG 161835Z AUTO 14003KT 10SM CLR 35/21 A3005 RMK AO2 T03500205
KJWG 161815Z AUTO 00000KT 10SM CLR 35/21 A3006 RMK AO2 T03460205
KJWG 161755Z AUTO 10004KT 10SM CLR 35/21 A3006 RMK AO2 T03490210 10349 20235
KJWG 161735Z AUTO 05006KT 10SM CLR 34/21 A3006 RMK AO2 T03440211
KJWG 161715Z AUTO 05003KT 10SM CLR 34/21 A3007 RMK AO2 T03350213
KJWG 161655Z AUTO 03005KT 10SM CLR 33/22 A3007 RMK AO2 T03340218
KJWG 161635Z AUTO 06004KT 10SM CLR 34/22 A3007 RMK AO2 T03380216
KJWG 161615Z AUTO 26003KT 10SM CLR 33/21 A3007 RMK AO2 LTG DSNT N T03310209
KJWG 161555Z AUTO 00000KT 10SM CLR 32/21 A3007 RMK AO2 LTG DSNT NE T03220210
KJWG 161535Z AUTO 00000KT 10SM CLR 32/21 A3007 RMK AO2 T03160212
KJWG 161515Z AUTO 00000KT 10SM CLR 31/21 A3007 RMK AO2 T03070214
KJWG 161455Z AUTO 28003KT 10SM CLR 30/22 A3008 RMK AO2 T03040217
KJWG 161435Z AUTO 35003KT 10SM SCT120 30/22 A3007 RMK AO2 LTG DSNT NE T02960219
KJWG 161415Z AUTO 30003KT 10SM SCT120 29/22 A3006 RMK AO2 T02860219
KJWG 161355Z AUTO 00000KT 10SM CLR 28/22 A3006 RMK AO2 T02760216
KJWG 161335Z AUTO 23003KT 10SM CLR 27/21 A3004 RMK AO2 T02670212
KJWG 161315Z AUTO 00000KT 10SM CLR 26/21 A3004 RMK AO2 LTG DSNT N T02610212
KJWG 161255Z AUTO 00000KT 10SM CLR 25/21 A3003 RMK AO2 LTG DSNT NE T02500213
KJWG 161235Z AUTO 00000KT 10SM CLR 25/21 A3003 RMK AO2 T02460211
KJWG 161215Z AUTO 00000KT 10SM CLR 24/21 A3003 RMK AO2 LTG DSNT N T02400213
KJWG 161155Z AUTO 00000KT 10SM CLR 24/21 A3003 RMK AO2 T02370212 10261 20231
KJWG 161135Z AUTO 16003KT 10SM CLR 24/21 A3002 RMK AO2 T02360210
KJWG 161115Z AUTO 00000KT 10SM SCT110 23/21 A3002 RMK AO2 T02330212
KJWG 161055Z AUTO 00000KT 10SM SCT090 SCT110 23/21 A3002 RMK AO2 T02330212
KJWG 161035Z AUTO 00000KT 10SM SCT090 24/21 A3002 RMK AO2 T02390212
KJWG 161015Z AUTO 00000KT 10SM OVC090 24/21 A3002 RMK AO2 T02360212
KJWG 160955Z AUTO 00000KT 10SM SCT090 23/22 A3001 RMK AO2 T02330215
KJWG 160935Z AUTO 00000KT 10SM SCT090 24/21 A3001 RMK AO2 T02360213
KJWG 160915Z AUTO 00000KT 10SM BKN090 24/22 A3001 RMK AO2 T02380219
KJWG 160855Z AUTO 00000KT 10SM BKN090 24/21 A3001 RMK AO2 T02350211
KJWG 160835Z AUTO 00000KT 10SM SCT090 24/21 A3001 RMK AO2 T02410212
KJWG 160815Z AUTO 00000KT 10SM CLR 24/21 A3001 RMK AO2 T02380214
KJWG 160755Z AUTO 00000KT 10SM CLR 25/21 A3001 RMK AO2 LTG DSNT N T02510213
KJWG 160735Z AUTO 00000KT 10SM CLR 24/21 A3001 RMK AO2 LTG DSNT N T02420212
KJWG 160715Z AUTO 00000KT 10SM CLR 25/22 A3001 RMK AO2 T02490215
KJWG 160655Z AUTO 20003KT 10SM SCT100 26/22 A3002 RMK AO2 T02550215
KJWG 160635Z AUTO 19003KT 10SM CLR 26/22 A3002 RMK AO2 T02560215
KJWG 160615Z AUTO 18004KT 10SM SCT110 26/22 A3002 RMK AO2 T02600216
KJWG 160555Z AUTO 00000KT 10SM CLR 26/22 A3002 RMK AO2 T02570218 10351 20255 403580251
KJWG 160535Z AUTO 00000KT 10SM CLR 26/22 A3002 RMK AO2 T02580217
KJWG 160515Z AUTO 00000KT 10SM CLR 26/22 A3002 RMK AO2 T02590215
KJWG 160455Z AUTO 17004KT 10SM CLR 26/22 A3002 RMK AO2 LTG DSNT NW T02620218
KJWG 160435Z AUTO 18004KT 10SM CLR 27/22 A3002 RMK AO2 T02650219
KJWG 160415Z AUTO 18005KT 10SM CLR 27/22 A3002 RMK AO2 T02710216
KJWG 160355Z AUTO 16004KT 10SM CLR 28/22 A3002 RMK AO2 T02750215
KJWG 160335Z AUTO 15004KT 10SM CLR 28/21 A3001 RMK AO2 T02790210
KJWG 160315Z AUTO 13006KT 10SM CLR 28/21 A3000 RMK AO2 LTG DSNT E T02810207
KJWG 160255Z AUTO 12007KT 10SM CLR 29/21 A2999 RMK AO2 T02890205
KJWG 160235Z AUTO 20005KT 10SM CLR 30/21 A2998 RMK AO2 LTG DSNT E T02990206
KJWG 160215Z AUTO 15005KT 10SM CLR 30/21 A2998 RMK AO2 T02980211
KJWG 160155Z AUTO 17007G15KT 10SM SCT075 SCT085 31/21 A2997 RMK AO2 LTG DSNT E AND SE T03100210
KJWG 160135Z AUTO 17009KT 10SM SCT075 BKN085 32/21 A2996 RMK AO2 LTG DSNT SE AND S T03210211
KJWG 160115Z AUTO 00000KT 10SM SCT085 33/20 A2995 RMK AO2 LTG DSNT SE AND S T03330202
KJWG 160055Z AUTO 00000KT 10SM CLR 34/20 A2995 RMK AO2 LTG DSNT S T03370203
KJWG 160035Z AUTO 15004KT 10SM CLR 34/20 A2995 RMK AO2 LTG DSNT N AND SE T03410200
KJWG 160015Z AUTO 16005KT 10SM CLR 35/21 A2994 RMK AO2 LTG DSNT W T03510207
KJWG 152355Z AUTO 16004KT 10SM CLR 35/21 A2994 RMK AO2 T03520205 10358 20321
KJWG 152335Z AUTO 14007KT 10SM CLR 35/21 A2995 RMK AO2 LTG DSNT W T03540206